Time;durP1;ratioP1;P1;durP2;ratioP2;P2;SDS_P1;SDS_P2;PMS_P1;PMS_P2;Temp;Humidity;BMP_temperature;BMP_pressure;BME280_temperature;BME280_humidity;BME280_pressure;Samples;Min_cycle;Max_cycle;Signal;HPM_P1;HPM_P2
2021/09/24 00:00:13;;;;;;;7.18;5.70;;;;;;;;;;4871567;28;20518;-58
2021/09/24 00:02:39;;;;;;;8.85;5.90;;;;;;;;;;4883508;28;20165;-58
2021/09/24 00:05:04;;;;;;;8.23;6.40;;;;;;;;;;4869908;28;20180;-58
2021/09/24 00:07:30;;;;;;;8.13;5.80;;;;;;;;;;4866647;28;20542;-59
2021/09/24 00:09:55;;;;;;;10.70;6.37;;;;;;;;;;4868841;28;20030;-58
2021/09/24 00:12:20;;;;;;;10.47;6.13;;;;;;;;;;4870623;28;20901;-58
2021/09/24 00:14:45;;;;;;;8.07;5.90;;;;;;;;;;4867400;28;20878;-58
2021/09/24 00:17:12;;;;;;;8.30;6.03;;;;;;;;;;4871558;28;20583;-58
2021/09/24 00:19:37;;;;;;;8.80;6.20;;;;;;;;;;4869177;28;21041;-58
2021/09/24 00:22:03;;;;;;;7.63;5.93;;;;;;;;;;4871558;28;20050;-58
2021/09/24 00:24:28;;;;;;;9.48;6.28;;;;;;;;;;4870437;28;20038;-58
2021/09/24 00:26:53;;;;;;;8.85;6.50;;;;;;;;;;4870888;28;20030;-59
2021/09/24 00:29:18;;;;;;;8.43;6.77;;;;;;;;;;4871367;28;20034;-58
2021/09/24 00:31:44;;;;;;;10.67;6.03;;;;;;;;;;4871759;28;20068;-58
2021/09/24 00:34:09;;;;;;;8.30;6.60;;;;;;;;;;4872601;28;20381;-58
2021/09/24 00:36:34;;;;;;;11.32;6.65;;;;;;;;;;4871089;28;20826;-58
2021/09/24 00:38:59;;;;;;;8.30;6.13;;;;;;;;;;4871517;28;20888;-58
2021/09/24 00:41:25;;;;;;;8.33;6.17;;;;;;;;;;4872544;28;20635;-58
2021/09/24 00:43:50;;;;;;;10.77;6.90;;;;;;;;;;4873455;28;20025;-58
2021/09/24 00:46:15;;;;;;;10.45;6.32;;;;;;;;;;4872324;28;20036;-58
2021/09/24 00:48:41;;;;;;;10.05;6.57;;;;;;;;;;4869176;28;20905;-58
2021/09/24 00:51:06;;;;;;;9.63;6.70;;;;;;;;;;4871367;28;20088;-58
2021/09/24 00:53:31;;;;;;;8.10;6.03;;;;;;;;;;4867730;28;20299;-58
2021/09/24 00:55:58;;;;;;;10.38;6.93;;;;;;;;;;4871203;28;20276;-58
2021/09/24 00:58:23;;;;;;;12.45;6.78;;;;;;;;;;4868503;28;20257;-58
2021/09/24 01:00:48;;;;;;;10.48;6.63;;;;;;;;;;4871937;28;20033;-58
2021/09/24 01:03:13;;;;;;;9.20;6.60;;;;;;;;;;4869463;28;20508;-58
2021/09/24 01:05:39;;;;;;;8.77;6.22;;;;;;;;;;4880485;28;20036;-58
2021/09/24 01:08:04;;;;;;;11.05;6.45;;;;;;;;;;4869338;28;20026;-59
2021/09/24 01:10:29;;;;;;;9.07;7.05;;;;;;;;;;4868543;28;20030;-58
2021/09/24 01:12:56;;;;;;;11.35;7.00;;;;;;;;;;4870840;28;20030;-58
2021/09/24 01:15:21;;;;;;;9.75;7.25;;;;;;;;;;4865222;28;20610;-58
2021/09/24 01:17:47;;;;;;;8.88;7.40;;;;;;;;;;4870103;28;20230;-58
2021/09/24 01:20:13;;;;;;;10.35;7.63;;;;;;;;;;4867012;28;20364;-58
2021/09/24 01:22:39;;;;;;;10.23;8.02;;;;;;;;;;4865831;28;20025;-58
2021/09/24 01:25:06;;;;;;;9.48;7.68;;;;;;;;;;4868748;28;20536;-58
2021/09/24 01:27:32;;;;;;;10.23;7.75;;;;;;;;;;4868720;28;20030;-58
2021/09/24 01:29:57;;;;;;;11.80;7.88;;;;;;;;;;4867231;28;20064;-58
2021/09/24 01:32:23;;;;;;;10.15;7.78;;;;;;;;;;4867352;28;20026;-58
2021/09/24 01:34:48;;;;;;;10.63;7.78;;;;;;;;;;4867810;28;20112;-59
2021/09/24 01:37:14;;;;;;;9.93;7.85;;;;;;;;;;4866494;28;24121;-58
2021/09/24 01:39:39;;;;;;;9.25;7.80;;;;;;;;;;4867956;28;20841;-59
2021/09/24 01:42:05;;;;;;;10.17;7.60;;;;;;;;;;4867775;28;20477;-58
2021/09/24 01:44:30;;;;;;;10.32;7.85;;;;;;;;;;4866921;28;20280;-58
2021/09/24 01:46:56;;;;;;;10.52;7.38;;;;;;;;;;4870712;28;20518;-59
2021/09/24 01:49:21;;;;;;;11.48;7.85;;;;;;;;;;4882338;28;20859;-59
2021/09/24 01:51:48;;;;;;;11.75;8.52;;;;;;;;;;4870310;28;20080;-59
2021/09/24 01:54:15;;;;;;;11.38;8.13;;;;;;;;;;4867790;28;20116;-57
2021/09/24 01:56:40;;;;;;;13.05;8.65;;;;;;;;;;4869111;28;20030;-59
2021/09/24 01:59:05;;;;;;;11.15;8.43;;;;;;;;;;4864994;28;20120;-58
2021/09/24 02:01:31;;;;;;;11.15;7.90;;;;;;;;;;4866510;28;23594;-58
2021/09/24 02:03:56;;;;;;;10.50;8.23;;;;;;;;;;4869237;28;20817;-59
2021/09/24 02:06:21;;;;;;;11.00;8.60;;;;;;;;;;4864828;28;21630;-58
2021/09/24 02:08:47;;;;;;;10.10;8.30;;;;;;;;;;4867851;28;20276;-58
2021/09/24 02:11:12;;;;;;;11.27;8.10;;;;;;;;;;4869517;28;20030;-58
2021/09/24 02:13:38;;;;;;;11.32;8.00;;;;;;;;;;4866174;28;20038;-59
2021/09/24 02:16:03;;;;;;;11.52;8.35;;;;;;;;;;4868025;28;20034;-58
2021/09/24 02:18:29;;;;;;;11.80;8.63;;;;;;;;;;4867965;28;20041;-59
2021/09/24 02:20:54;;;;;;;10.98;8.15;;;;;;;;;;4866120;28;20126;-59
2021/09/24 02:23:19;;;;;;;10.53;8.47;;;;;;;;;;4879640;28;20090;-57
2021/09/24 02:25:45;;;;;;;11.05;8.30;;;;;;;;;;4868126;28;21016;-59
2021/09/24 02:28:10;;;;;;;9.63;7.40;;;;;;;;;;4869608;28;20642;-60
2021/09/24 02:30:35;;;;;;;10.43;8.43;;;;;;;;;;4866081;28;20034;-60
2021/09/24 02:33:00;;;;;;;9.75;8.20;;;;;;;;;;4866747;28;20795;-60
2021/09/24 02:35:26;;;;;;;10.27;8.03;;;;;;;;;;4865704;28;20542;-60
2021/09/24 02:37:51;;;;;;;12.63;8.17;;;;;;;;;;4864682;28;20653;-59
2021/09/24 02:40:19;;;;;;;10.97;8.20;;;;;;;;;;4866633;28;20641;-59
2021/09/24 02:42:44;;;;;;;11.60;7.40;;;;;;;;;;4865702;28;20383;-59
2021/09/24 02:45:10;;;;;;;11.30;9.05;;;;;;;;;;4866579;28;20037;-59
2021/09/24 02:47:35;;;;;;;10.55;8.43;;;;;;;;;;4867974;28;20153;-59
2021/09/24 02:50:00;;;;;;;8.82;7.68;;;;;;;;;;4864979;28;24338;-58
2021/09/24 02:52:26;;;;;;;11.77;8.73;;;;;;;;;;4864580;28;20606;-59
2021/09/24 02:54:51;;;;;;;11.90;8.43;;;;;;;;;;4865675;28;20607;-59
2021/09/24 02:57:16;;;;;;;10.30;8.27;;;;;;;;;;4876151;28;20323;-58
2021/09/24 02:59:41;;;;;;;13.10;8.52;;;;;;;;;;4861486;28;20103;-59
2021/09/24 03:02:07;;;;;;;9.90;7.88;;;;;;;;;;4863751;28;20112;-59
2021/09/24 03:04:32;;;;;;;11.60;8.60;;;;;;;;;;4865240;28;20037;-59
2021/09/24 03:06:57;;;;;;;9.95;7.13;;;;;;;;;;4865228;28;20036;-60
2021/09/24 03:09:22;;;;;;;10.13;7.60;;;;;;;;;;4866015;28;20426;-59
2021/09/24 03:11:48;;;;;;;9.80;7.30;;;;;;;;;;4872005;28;20543;-59
2021/09/24 03:14:13;;;;;;;10.70;7.78;;;;;;;;;;4864370;28;21058;-59
2021/09/24 03:16:41;;;;;;;9.47;6.90;;;;;;;;;;4860524;28;20518;-59
2021/09/24 03:19:06;;;;;;;10.35;8.02;;;;;;;;;;4856631;28;20849;-59
2021/09/24 03:21:31;;;;;;;13.15;8.35;;;;;;;;;;4865780;28;20063;-58
2021/09/24 03:23:57;;;;;;;11.33;8.13;;;;;;;;;;4865401;28;20053;-59
2021/09/24 03:26:22;;;;;;;11.97;7.73;;;;;;;;;;4862289;28;20368;-58
2021/09/24 03:28:47;;;;;;;9.35;7.85;;;;;;;;;;4863430;28;20309;-59
2021/09/24 03:31:14;;;;;;;9.75;7.63;;;;;;;;;;4864468;28;20033;-58
2021/09/24 03:33:39;;;;;;;10.10;8.10;;;;;;;;;;4859448;28;20599;-59
2021/09/24 03:36:04;;;;;;;9.67;7.77;;;;;;;;;;4862855;28;20033;-59
2021/09/24 03:38:29;;;;;;;11.07;7.50;;;;;;;;;;4865342;28;20324;-59
2021/09/24 03:40:55;;;;;;;10.52;7.90;;;;;;;;;;4866606;28;20029;-59
2021/09/24 03:43:20;;;;;;;10.10;8.27;;;;;;;;;;4877877;28;20352;-59
2021/09/24 03:45:45;;;;;;;10.73;7.77;;;;;;;;;;4863541;28;21001;-59
2021/09/24 03:48:11;;;;;;;9.98;8.00;;;;;;;;;;4867582;28;20264;-59
2021/09/24 03:50:36;;;;;;;9.38;7.65;;;;;;;;;;4863670;28;20711;-59
2021/09/24 03:53:01;;;;;;;9.33;7.40;;;;;;;;;;4860466;28;20034;-59
2021/09/24 03:55:27;;;;;;;8.70;7.30;;;;;;;;;;4862008;28;23760;-59
2021/09/24 03:57:52;;;;;;;9.65;7.35;;;;;;;;;;4862911;28;20893;-58
2021/09/24 04:00:18;;;;;;;9.88;7.38;;;;;;;;;;4867911;28;20133;-59
2021/09/24 04:02:43;;;;;;;8.68;7.65;;;;;;;;;;4861492;28;20730;-59
2021/09/24 04:05:09;;;;;;;9.57;7.60;;;;;;;;;;4865493;28;20507;-59
2021/09/24 04:07:34;;;;;;;11.23;6.85;;;;;;;;;;4864192;28;21281;-59
2021/09/24 04:09:59;;;;;;;9.02;7.10;;;;;;;;;;4862485;28;20033;-59
2021/09/24 04:12:24;;;;;;;9.57;7.10;;;;;;;;;;4861355;28;20069;-59
2021/09/24 04:14:50;;;;;;;13.10;7.57;;;;;;;;;;4862503;28;21315;-59
2021/09/24 04:17:15;;;;;;;10.82;8.07;;;;;;;;;;4863860;28;20812;-59
2021/09/24 04:19:41;;;;;;;9.73;7.10;;;;;;;;;;4861605;28;20908;-59
2021/09/24 04:22:06;;;;;;;9.97;7.43;;;;;;;;;;4862634;28;20022;-59
2021/09/24 04:24:31;;;;;;;12.80;7.88;;;;;;;;;;4863897;28;20846;-59
2021/09/24 04:26:56;;;;;;;10.33;7.60;;;;;;;;;;4863677;28;20828;-59
2021/09/24 04:29:22;;;;;;;12.38;8.30;;;;;;;;;;4864724;28;20815;-59
2021/09/24 04:31:47;;;;;;;10.77;7.87;;;;;;;;;;4862839;28;20128;-59
2021/09/24 04:34:12;;;;;;;10.23;7.80;;;;;;;;;;4865038;28;20042;-59
2021/09/24 04:36:38;;;;;;;10.98;7.75;;;;;;;;;;4863293;28;20022;-60
2021/09/24 04:39:03;;;;;;;14.55;8.35;;;;;;;;;;4868938;28;20490;-59
2021/09/24 04:41:29;;;;;;;10.27;7.45;;;;;;;;;;4866511;28;20030;-59
2021/09/24 04:43:54;;;;;;;11.10;7.90;;;;;;;;;;4869874;28;20034;-59
2021/09/24 04:46:19;;;;;;;12.57;8.85;;;;;;;;;;4866086;28;20022;-59
2021/09/24 04:48:45;;;;;;;10.77;7.95;;;;;;;;;;4870246;28;21026;-59
2021/09/24 04:51:10;;;;;;;9.93;7.50;;;;;;;;;;4870504;28;21568;-58
2021/09/24 04:53:35;;;;;;;10.90;7.50;;;;;;;;;;4868554;28;20419;-60
2021/09/24 04:56:01;;;;;;;12.25;8.23;;;;;;;;;;4871646;28;20041;-59
2021/09/24 04:58:26;;;;;;;11.73;8.25;;;;;;;;;;4884296;28;20026;-59
2021/09/24 05:00:51;;;;;;;12.07;8.27;;;;;;;;;;4872670;28;20160;-59
2021/09/24 05:03:17;;;;;;;10.52;7.78;;;;;;;;;;4873770;28;20029;-59
2021/09/24 05:05:42;;;;;;;10.90;8.43;;;;;;;;;;4870406;28;22384;-59
2021/09/24 05:08:07;;;;;;;11.17;8.50;;;;;;;;;;4867060;28;20026;-59
2021/09/24 05:10:32;;;;;;;10.10;7.50;;;;;;;;;;4870230;28;20036;-59
2021/09/24 05:12:58;;;;;;;10.25;7.68;;;;;;;;;;4871968;28;20587;-59
2021/09/24 05:15:23;;;;;;;10.73;8.40;;;;;;;;;;4867725;28;20396;-59
2021/09/24 05:17:49;;;;;;;10.05;8.05;;;;;;;;;;4871241;28;20483;-59
2021/09/24 05:20:14;;;;;;;10.40;7.85;;;;;;;;;;4870255;28;20037;-59
2021/09/24 05:22:40;;;;;;;10.32;7.68;;;;;;;;;;4872763;28;24204;-59
2021/09/24 05:25:05;;;;;;;10.07;7.40;;;;;;;;;;4884799;28;20038;-59
2021/09/24 05:27:30;;;;;;;11.98;7.22;;;;;;;;;;4882174;28;20896;-59
2021/09/24 05:29:56;;;;;;;9.83;7.93;;;;;;;;;;4871757;28;20029;-58
2021/09/24 05:32:21;;;;;;;11.85;7.45;;;;;;;;;;4872855;28;20264;-58
2021/09/24 05:34:46;;;;;;;10.50;7.40;;;;;;;;;;4873657;28;20336;-58
2021/09/24 05:37:12;;;;;;;12.35;8.15;;;;;;;;;;4865901;28;20264;-58
2021/09/24 05:39:38;;;;;;;11.18;8.32;;;;;;;;;;4873013;28;24362;-57
2021/09/24 05:42:03;;;;;;;13.10;8.63;;;;;;;;;;4876771;28;20595;-58
2021/09/24 05:44:29;;;;;;;9.82;7.72;;;;;;;;;;4868796;28;20876;-57
2021/09/24 05:46:54;;;;;;;10.95;7.57;;;;;;;;;;4871723;28;23672;-60
2021/09/24 05:49:19;;;;;;;10.07;7.93;;;;;;;;;;4880760;28;20126;-58
2021/09/24 05:51:44;;;;;;;12.77;8.32;;;;;;;;;;4889506;28;20053;-58
2021/09/24 05:54:10;;;;;;;10.50;8.32;;;;;;;;;;4887139;28;20046;-58
2021/09/24 05:56:35;;;;;;;11.02;8.00;;;;;;;;;;4889717;28;20537;-59
2021/09/24 05:59:01;;;;;;;11.75;8.13;;;;;;;;;;4892666;28;20772;-59
2021/09/24 06:01:26;;;;;;;10.57;7.40;;;;;;;;;;4890023;28;21020;-58
2021/09/24 06:03:53;;;;;;;12.07;8.15;;;;;;;;;;4892202;28;20037;-58
2021/09/24 06:06:19;;;;;;;11.45;8.02;;;;;;;;;;4891866;28;23470;-59
2021/09/24 06:08:49;;;;;;;10.60;8.35;;;;;;;;;;4895737;28;20366;-58
2021/09/24 06:11:14;;;;;;;10.13;7.95;;;;;;;;;;4898673;28;20819;-59
2021/09/24 06:13:40;;;;;;;10.67;7.67;;;;;;;;;;4893585;28;20481;-58
2021/09/24 06:16:06;;;;;;;11.17;7.93;;;;;;;;;;4889114;28;20269;-59
2021/09/24 06:18:33;;;;;;;11.35;8.05;;;;;;;;;;4891943;28;20280;-58
2021/09/24 06:20:58;;;;;;;12.27;8.02;;;;;;;;;;4891643;28;20331;-59
2021/09/24 06:23:24;;;;;;;10.63;7.85;;;;;;;;;;4891144;28;20375;-58
2021/09/24 06:25:49;;;;;;;10.98;7.57;;;;;;;;;;4889265;28;20030;-58
2021/09/24 06:28:14;;;;;;;11.95;8.07;;;;;;;;;;4890560;28;20443;-58
2021/09/24 06:30:39;;;;;;;11.40;7.90;;;;;;;;;;4891535;28;20530;-58
2021/09/24 06:33:05;;;;;;;11.40;8.00;;;;;;;;;;4888563;28;20252;-59
2021/09/24 06:35:30;;;;;;;10.50;7.75;;;;;;;;;;4895909;28;20392;-58
2021/09/24 06:37:55;;;;;;;11.02;7.72;;;;;;;;;;4889799;28;24830;-59
2021/09/24 06:40:21;;;;;;;11.25;8.02;;;;;;;;;;4891931;28;20030;-59
2021/09/24 06:42:46;;;;;;;9.60;7.50;;;;;;;;;;4894237;28;20615;-58
2021/09/24 06:45:13;;;;;;;9.10;7.80;;;;;;;;;;4891424;28;21059;-58
2021/09/24 06:47:38;;;;;;;11.20;8.30;;;;;;;;;;4889981;28;20034;-58
2021/09/24 06:50:03;;;;;;;9.47;7.60;;;;;;;;;;4893247;28;20567;-58
2021/09/24 06:52:29;;;;;;;9.63;7.53;;;;;;;;;;4895557;28;20264;-58
2021/09/24 06:54:55;;;;;;;11.98;7.72;;;;;;;;;;4895196;28;20418;-58
2021/09/24 06:57:20;;;;;;;9.93;7.40;;;;;;;;;;4894734;28;20026;-58
2021/09/24 06:59:45;;;;;;;10.73;7.93;;;;;;;;;;4894020;28;20060;-58
2021/09/24 07:02:11;;;;;;;10.38;8.60;;;;;;;;;;4895002;28;20277;-58
2021/09/24 07:04:36;;;;;;;9.70;7.88;;;;;;;;;;4878510;28;20204;-58
2021/09/24 07:07:01;;;;;;;10.43;7.75;;;;;;;;;;4871544;28;20354;-58
2021/09/24 07:09:26;;;;;;;9.68;7.78;;;;;;;;;;4886664;28;20071;-58
2021/09/24 07:11:52;;;;;;;11.40;7.63;;;;;;;;;;4895626;28;20568;-58
2021/09/24 07:14:18;;;;;;;10.47;7.40;;;;;;;;;;4881715;28;20296;-58
2021/09/24 07:16:44;;;;;;;8.63;7.28;;;;;;;;;;4877497;28;20272;-58
2021/09/24 07:19:10;;;;;;;11.13;7.25;;;;;;;;;;4873089;28;20033;-59
2021/09/24 07:21:35;;;;;;;9.20;7.20;;;;;;;;;;4877111;28;20041;-58
2021/09/24 07:24:00;;;;;;;8.52;6.90;;;;;;;;;;4882137;28;20056;-58
2021/09/24 07:26:27;;;;;;;10.02;7.47;;;;;;;;;;4889820;28;20038;-59
2021/09/24 07:28:52;;;;;;;9.15;6.97;;;;;;;;;;4891367;28;20082;-59
2021/09/24 07:31:17;;;;;;;12.65;8.52;;;;;;;;;;4887097;28;20793;-59
2021/09/24 07:33:43;;;;;;;8.87;7.00;;;;;;;;;;4891785;28;20033;-59
2021/09/24 07:36:10;;;;;;;8.57;6.95;;;;;;;;;;4883793;28;20275;-59
2021/09/24 07:38:35;;;;;;;9.68;7.28;;;;;;;;;;4891538;28;20117;-58
2021/09/24 07:41:00;;;;;;;9.27;6.80;;;;;;;;;;4907320;28;20029;-59
2021/09/24 07:43:25;;;;;;;8.00;6.32;;;;;;;;;;4875993;28;20598;-59
2021/09/24 07:45:51;;;;;;;9.23;7.30;;;;;;;;;;4879100;28;20495;-58
2021/09/24 07:48:16;;;;;;;10.70;7.55;;;;;;;;;;4878345;28;20691;-58
2021/09/24 07:50:41;;;;;;;11.33;8.80;;;;;;;;;;4879861;28;20864;-59
2021/09/24 07:53:07;;;;;;;10.60;9.00;;;;;;;;;;4884999;28;20376;-58
2021/09/24 07:55:32;;;;;;;11.48;7.93;;;;;;;;;;4879537;28;20149;-59
2021/09/24 07:57:57;;;;;;;10.32;6.90;;;;;;;;;;4880335;28;20034;-58
2021/09/24 08:00:23;;;;;;;9.50;7.23;;;;;;;;;;4881992;28;20428;-58
2021/09/24 08:02:50;;;;;;;9.25;6.82;;;;;;;;;;4879189;28;20306;-59
2021/09/24 08:05:15;;;;;;;8.70;6.93;;;;;;;;;;4882373;28;20038;-58
2021/09/24 08:07:40;;;;;;;10.70;6.75;;;;;;;;;;4881892;28;20165;-58
2021/09/24 08:10:06;;;;;;;11.90;7.20;;;;;;;;;;4881152;28;20037;-58
2021/09/24 08:12:31;;;;;;;8.32;6.40;;;;;;;;;;4881066;28;21145;-59
2021/09/24 08:14:56;;;;;;;10.27;6.63;;;;;;;;;;4881690;28;20149;-58
2021/09/24 08:17:22;;;;;;;8.80;6.37;;;;;;;;;;4882287;28;20264;-58
2021/09/24 08:19:47;;;;;;;7.40;6.03;;;;;;;;;;4867823;28;20635;-58
2021/09/24 08:22:12;;;;;;;10.23;6.72;;;;;;;;;;4884479;28;20025;-58
2021/09/24 08:24:38;;;;;;;10.75;6.88;;;;;;;;;;4880100;28;20443;-58
2021/09/24 08:27:03;;;;;;;10.27;7.10;;;;;;;;;;4880922;28;20025;-59
2021/09/24 08:29:28;;;;;;;9.05;7.13;;;;;;;;;;4886118;28;20589;-59
2021/09/24 08:31:54;;;;;;;9.50;6.85;;;;;;;;;;4878844;28;20207;-58
2021/09/24 08:34:19;;;;;;;9.82;6.82;;;;;;;;;;4887874;28;20938;-58
2021/09/24 08:36:44;;;;;;;9.07;6.78;;;;;;;;;;4885458;28;20750;-58
2021/09/24 08:39:11;;;;;;;8.77;6.55;;;;;;;;;;4879049;28;20160;-58
2021/09/24 08:41:36;;;;;;;15.50;6.90;;;;;;;;;;4880947;28;20026;-58
2021/09/24 08:44:02;;;;;;;8.50;5.82;;;;;;;;;;4879550;28;20107;-58
2021/09/24 08:46:27;;;;;;;8.57;6.65;;;;;;;;;;4883951;28;23508;-58
2021/09/24 08:48:53;;;;;;;9.55;6.20;;;;;;;;;;4885014;28;20981;-58
2021/09/24 08:51:18;;;;;;;8.73;6.43;;;;;;;;;;4881105;28;20500;-59
2021/09/24 08:53:43;;;;;;;7.80;6.40;;;;;;;;;;4881617;28;20038;-59
2021/09/24 08:56:10;;;;;;;10.00;6.55;;;;;;;;;;4882773;28;21240;-59
2021/09/24 08:58:36;;;;;;;8.75;6.40;;;;;;;;;;4880785;28;20037;-59
2021/09/24 09:01:02;;;;;;;9.20;6.18;;;;;;;;;;4882788;28;20038;-58
2021/09/24 09:03:44;;;;;;;9.98;6.30;;;;;;;;;;4885024;28;20061;-59
2021/09/24 09:06:11;;;;;;;7.95;6.28;;;;;;;;;;4883568;28;20130;-59
2021/09/24 09:08:36;;;;;;;8.57;5.50;;;;;;;;;;4884773;28;20041;-58
2021/09/24 09:11:10;;;;;;;7.47;5.55;;;;;;;;;;4886307;28;20595;-58
2021/09/24 09:13:40;;;;;;;7.63;5.22;;;;;;;;;;4883105;28;20570;-59
2021/09/24 09:16:06;;;;;;;9.30;5.65;;;;;;;;;;4875247;28;20133;-58
2021/09/24 09:18:32;;;;;;;9.43;5.85;;;;;;;;;;4878311;28;20030;-59
2021/09/24 09:20:59;;;;;;;8.10;5.15;;;;;;;;;;4885966;28;21295;-59
2021/09/24 09:23:25;;;;;;;9.82;5.32;;;;;;;;;;4879681;28;20140;-58
2021/09/24 09:25:52;;;;;;;10.55;5.53;;;;;;;;;;4883927;28;23992;-59
2021/09/24 09:28:26;;;;;;;9.73;5.80;;;;;;;;;;4882239;28;20076;-59
2021/09/24 09:30:52;;;;;;;8.68;5.72;;;;;;;;;;4880848;28;20092;-58
2021/09/24 09:33:18;;;;;;;7.93;5.85;;;;;;;;;;4883585;28;20018;-59
2021/09/24 09:35:44;;;;;;;8.30;5.15;;;;;;;;;;4881495;28;20478;-58
2021/09/24 09:38:17;;;;;;;8.88;4.95;;;;;;;;;;4882210;28;20275;-58
2021/09/24 09:40:43;;;;;;;7.85;5.20;;;;;;;;;;4883004;28;20826;-58
2021/09/24 09:43:08;;;;;;;6.97;5.45;;;;;;;;;;4876871;28;20550;-58
2021/09/24 09:45:34;;;;;;;7.23;5.00;;;;;;;;;;4885558;28;20033;-57
2021/09/24 09:47:59;;;;;;;7.85;5.00;;;;;;;;;;4885297;28;20732;-58
2021/09/24 09:50:26;;;;;;;6.17;4.30;;;;;;;;;;4885703;28;20026;-58
2021/09/24 09:52:54;;;;;;;7.40;4.88;;;;;;;;;;4884431;28;20269;-58
2021/09/24 09:55:20;;;;;;;7.07;4.68;;;;;;;;;;4882135;28;20030;-59
2021/09/24 09:57:49;;;;;;;10.15;5.00;;;;;;;;;;4880296;28;20256;-58
2021/09/24 10:00:14;;;;;;;8.63;5.00;;;;;;;;;;4884085;28;21177;-57
2021/09/24 10:02:39;;;;;;;11.10;4.80;;;;;;;;;;4882071;28;20034;-59
2021/09/24 10:05:05;;;;;;;6.80;4.65;;;;;;;;;;4890471;28;23516;-59
2021/09/24 10:07:37;;;;;;;6.88;4.88;;;;;;;;;;4883378;28;20720;-57
2021/09/24 10:10:07;;;;;;;7.68;4.82;;;;;;;;;;4889479;28;20034;-58
2021/09/24 10:12:32;;;;;;;7.75;5.20;;;;;;;;;;4891988;28;20489;-58
2021/09/24 10:14:57;;;;;;;7.85;5.07;;;;;;;;;;4886272;28;21490;-59
2021/09/24 10:17:23;;;;;;;7.10;5.03;;;;;;;;;;4890480;28;20022;-58
2021/09/24 10:19:50;;;;;;;7.47;5.45;;;;;;;;;;4889354;28;20617;-58
2021/09/24 10:22:15;;;;;;;9.30;5.50;;;;;;;;;;4891800;28;20030;-59
2021/09/24 10:24:41;;;;;;;7.70;5.50;;;;;;;;;;4884529;28;20158;-58
2021/09/24 10:27:07;;;;;;;7.65;5.32;;;;;;;;;;4886769;28;20715;-58
2021/09/24 10:29:35;;;;;;;9.15;5.60;;;;;;;;;;4892678;28;20037;-58
2021/09/24 10:32:19;;;;;;;7.10;5.60;;;;;;;;;;4888486;28;20033;-58
2021/09/24 10:35:10;;;;;;;6.90;5.30;;;;;;;;;;4890661;28;20186;-58
2021/09/24 10:37:37;;;;;;;7.65;5.88;;;;;;;;;;4887976;28;20457;-59
2021/09/24 10:40:20;;;;;;;7.18;5.60;;;;;;;;;;4889797;28;20139;-58
2021/09/24 10:42:48;;;;;;;6.72;5.13;;;;;;;;;;4892838;28;20034;-59
2021/09/24 10:45:18;;;;;;;7.88;5.63;;;;;;;;;;4901958;28;20165;-58
2021/09/24 10:48:02;;;;;;;9.85;6.05;;;;;;;;;;4888557;28;20129;-58
2021/09/24 10:50:27;;;;;;;11.65;7.07;;;;;;;;;;4892845;28;20783;-58
2021/09/24 10:53:08;;;;;;;11.83;9.03;;;;;;;;;;4884927;28;20046;-58
2021/09/24 10:55:33;;;;;;;8.98;6.85;;;;;;;;;;4885583;28;20065;-58
2021/09/24 10:58:00;;;;;;;10.75;7.05;;;;;;;;;;4887175;28;20033;-58
2021/09/24 11:00:29;;;;;;;13.07;8.98;;;;;;;;;;4886324;28;20026;-58
2021/09/24 11:03:15;;;;;;;11.30;8.40;;;;;;;;;;4888127;28;20036;-58
2021/09/24 11:06:03;;;;;;;10.10;7.82;;;;;;;;;;4888042;28;20046;-58
2021/09/24 11:08:28;;;;;;;11.50;8.73;;;;;;;;;;4891621;28;20025;-58
2021/09/24 11:11:03;;;;;;;12.07;9.27;;;;;;;;;;4889191;28;20806;-58
2021/09/24 11:13:31;;;;;;;10.98;9.10;;;;;;;;;;4888951;28;20054;-59
2021/09/24 11:15:57;;;;;;;14.25;9.75;;;;;;;;;;4889731;28;20026;-59
2021/09/24 11:18:41;;;;;;;11.98;9.70;;;;;;;;;;4889447;28;20314;-58
2021/09/24 11:21:06;;;;;;;11.65;10.02;;;;;;;;;;4890904;28;20040;-59
2021/09/24 11:23:33;;;;;;;12.67;9.60;;;;;;;;;;4890328;28;20022;-58
2021/09/24 11:26:15;;;;;;;13.68;10.15;;;;;;;;;;4889301;28;21075;-58
2021/09/24 11:28:43;;;;;;;12.55;9.68;;;;;;;;;;4890436;28;20030;-59
2021/09/24 11:31:10;;;;;;;13.35;9.25;;;;;;;;;;4892017;28;20054;-58
2021/09/24 11:33:40;;;;;;;14.05;11.60;;;;;;;;;;4891384;28;20025;-58
2021/09/24 11:36:05;;;;;;;13.20;10.50;;;;;;;;;;4890964;28;21583;-59
2021/09/24 11:38:31;;;;;;;14.18;10.32;;;;;;;;;;4891235;28;20026;-58
2021/09/24 11:40:58;;;;;;;13.88;11.45;;;;;;;;;;4888616;28;20052;-57
2021/09/24 11:43:24;;;;;;;12.63;10.48;;;;;;;;;;4890635;28;20022;-58
2021/09/24 11:45:50;;;;;;;15.77;10.85;;;;;;;;;;4903140;28;20025;-57
2021/09/24 11:48:25;;;;;;;13.32;11.15;;;;;;;;;;4888686;28;20095;-58
2021/09/24 11:50:50;;;;;;;14.60;11.10;;;;;;;;;;4889997;28;21644;-58
2021/09/24 11:53:17;;;;;;;13.63;10.57;;;;;;;;;;4890263;28;20038;-58
2021/09/24 11:55:44;;;;;;;13.98;11.02;;;;;;;;;;4893359;28;20613;-58
2021/09/24 11:58:14;;;;;;;13.18;9.80;;;;;;;;;;4889634;28;20513;-58
2021/09/24 12:00:45;;;;;;;13.43;10.15;;;;;;;;;;4903851;28;20168;-58
2021/09/24 12:03:21;;;;;;;13.27;10.82;;;;;;;;;;4888506;28;20123;-58
2021/09/24 12:05:50;;;;;;;13.40;10.20;;;;;;;;;;4886343;28;20721;-59
2021/09/24 12:08:16;;;;;;;11.57;9.50;;;;;;;;;;4884961;28;20030;-58
2021/09/24 12:10:41;;;;;;;11.95;9.38;;;;;;;;;;4887499;28;20585;-58
2021/09/24 12:13:11;;;;;;;12.38;9.70;;;;;;;;;;4886650;28;20026;-58
2021/09/24 12:15:36;;;;;;;;;;;;;;;;;;4890445;28;20306;-58
2021/09/24 12:18:01;;;;;;;14.77;9.10;;;;;;;;;;4885336;28;20890;-58
2021/09/24 12:20:27;;;;;;;19.47;10.20;;;;;;;;;;4884225;28;20100;-59
2021/09/24 12:22:52;;;;;;;13.18;9.98;;;;;;;;;;4875436;28;20041;-58
2021/09/24 12:25:19;;;;;;;15.63;10.43;;;;;;;;;;4878944;28;20972;-58
2021/09/24 12:27:44;;;;;;;10.60;8.63;;;;;;;;;;4877930;28;20050;-59
2021/09/24 12:30:14;;;;;;;11.98;8.80;;;;;;;;;;4887149;28;20026;-58
2021/09/24 12:32:39;;;;;;;;;;;;;;;;;;4882508;28;20034;-58
2021/09/24 12:35:05;;;;;;;14.70;9.07;;;;;;;;;;4883569;28;20197;-58
2021/09/24 12:37:56;;;;;;;14.00;9.45;;;;;;;;;;4883697;28;20256;-58
2021/09/24 12:40:22;;;;;;;12.73;8.60;;;;;;;;;;4880467;28;21447;-59
2021/09/24 12:42:48;;;;;;;12.80;8.73;;;;;;;;;;4883898;28;20018;-59
2021/09/24 12:45:24;;;;;;;11.40;8.95;;;;;;;;;;4879451;28;20269;-58
2021/09/24 12:47:50;;;;;;;12.15;8.60;;;;;;;;;;4884341;28;20030;-58
2021/09/24 12:50:15;;;;;;;9.73;8.00;;;;;;;;;;4882732;28;20135;-58
2021/09/24 12:52:42;;;;;;;11.48;8.52;;;;;;;;;;4887311;28;20030;-59
2021/09/24 12:55:08;;;;;;;9.98;7.43;;;;;;;;;;4882711;28;20360;-59
2021/09/24 12:57:34;;;;;;;12.38;8.10;;;;;;;;;;4884574;28;20534;-58
2021/09/24 13:00:00;;;;;;;11.73;7.88;;;;;;;;;;4881890;28;20563;-58
2021/09/24 13:02:27;;;;;;;10.15;7.68;;;;;;;;;;4884476;28;20026;-58
2021/09/24 13:04:52;;;;;;;11.43;8.50;;;;;;;;;;4889109;28;20577;-58
2021/09/24 13:07:18;;;;;;;10.75;7.50;;;;;;;;;;4885770;28;20033;-58
2021/09/24 13:09:43;;;;;;;11.07;7.13;;;;;;;;;;4882368;28;20584;-59
2021/09/24 13:12:10;;;;;;;10.55;7.47;;;;;;;;;;4886353;28;20319;-58
2021/09/24 13:14:37;;;;;;;9.32;7.50;;;;;;;;;;4887573;28;21290;-58
2021/09/24 13:17:02;;;;;;;9.93;7.25;;;;;;;;;;4885592;28;20124;-58
2021/09/24 13:19:27;;;;;;;8.40;6.32;;;;;;;;;;4885273;28;20472;-58
2021/09/24 13:21:53;;;;;;;12.75;6.05;;;;;;;;;;4887620;28;20025;-58
2021/09/24 13:24:18;;;;;;;9.70;6.90;;;;;;;;;;4886768;28;20977;-58
2021/09/24 13:26:44;;;;;;;10.73;7.43;;;;;;;;;;4882388;28;20620;-58
2021/09/24 13:29:09;;;;;;;9.65;6.53;;;;;;;;;;4888356;28;20674;-58
2021/09/24 13:31:35;;;;;;;10.68;6.78;;;;;;;;;;4889452;28;20578;-59
2021/09/24 13:34:00;;;;;;;11.63;7.38;;;;;;;;;;4887894;28;20029;-58
2021/09/24 13:36:25;;;;;;;10.43;7.10;;;;;;;;;;4883800;28;20660;-59
2021/09/24 13:38:50;;;;;;;9.80;6.15;;;;;;;;;;4878498;28;20723;-58
2021/09/24 13:41:16;;;;;;;10.47;6.40;;;;;;;;;;4883583;28;20037;-58
2021/09/24 13:43:41;;;;;;;9.52;6.05;;;;;;;;;;4887135;28;21619;-58
2021/09/24 13:46:06;;;;;;;9.68;5.93;;;;;;;;;;4886094;28;23857;-59
2021/09/24 13:48:33;;;;;;;9.25;5.88;;;;;;;;;;4883153;28;20034;-58
2021/09/24 13:50:58;;;;;;;9.80;6.68;;;;;;;;;;4887830;28;20320;-58
2021/09/24 13:53:24;;;;;;;11.10;6.28;;;;;;;;;;4886888;28;20568;-59
2021/09/24 13:55:49;;;;;;;8.88;6.25;;;;;;;;;;4881460;28;20359;-58
2021/09/24 13:58:14;;;;;;;10.25;5.60;;;;;;;;;;4886341;28;20033;-57
2021/09/24 14:00:40;;;;;;;9.43;5.90;;;;;;;;;;4890889;28;20104;-58
2021/09/24 14:03:05;;;;;;;10.10;6.40;;;;;;;;;;4883022;28;21274;-58
2021/09/24 14:05:30;;;;;;;8.18;6.13;;;;;;;;;;4879476;28;20029;-58
2021/09/24 14:07:56;;;;;;;23.37;7.10;;;;;;;;;;4877264;28;20080;-58
2021/09/24 14:10:21;;;;;;;20.30;6.72;;;;;;;;;;4872070;28;20272;-58
2021/09/24 14:12:50;;;;;;;13.27;6.60;;;;;;;;;;4879729;28;20079;-58
2021/09/24 14:15:15;;;;;;;9.05;6.40;;;;;;;;;;4874549;28;20145;-58
2021/09/24 14:17:41;;;;;;;20.43;18.53;;;;;;;;;;4881986;28;20712;-59
2021/09/24 14:20:07;;;;;;;11.20;8.25;;;;;;;;;;4879372;28;20269;-59
2021/09/24 14:22:33;;;;;;;9.80;6.88;;;;;;;;;;4879962;28;20038;-59
2021/09/24 14:24:58;;;;;;;10.35;6.82;;;;;;;;;;4878924;28;20076;-59
2021/09/24 14:27:25;;;;;;;10.55;6.97;;;;;;;;;;4881096;28;20052;-59
2021/09/24 14:29:50;;;;;;;11.00;8.13;;;;;;;;;;4873207;28;20018;-59